createdAt,value
2023-11-21T00:00:02.147Z,12.60
2023-11-21T00:02:30.357Z,12.60
2023-11-21T00:04:57.216Z,12.70
2023-11-21T00:07:26.869Z,12.70
2023-11-21T00:09:53.755Z,12.70
2023-11-21T00:12:22.429Z,12.60
2023-11-21T00:14:56.997Z,12.70
2023-11-21T00:17:27.286Z,12.70
2023-11-21T00:19:54.616Z,12.70
2023-11-21T00:22:24.134Z,12.70
2023-11-21T00:24:51.063Z,12.70
2023-11-21T00:27:17.936Z,12.70
2023-11-21T00:29:44.760Z,12.70
2023-11-21T00:32:12.153Z,12.60
2023-11-21T00:34:39.766Z,12.70
2023-11-21T00:37:06.641Z,12.60
2023-11-21T00:39:34.186Z,12.60
2023-11-21T00:42:01.037Z,12.60
2023-11-21T00:44:27.881Z,12.60
2023-11-21T00:46:55.792Z,12.60
2023-11-21T00:49:23.154Z,12.60
2023-11-21T00:51:50.551Z,12.50
2023-11-21T00:54:18.335Z,12.50
2023-11-21T00:56:45.286Z,12.50
2023-11-21T00:59:12.145Z,12.50
2023-11-21T01:01:39.112Z,12.50
2023-11-21T01:04:07.850Z,12.50
2023-11-21T01:06:34.692Z,12.50
2023-11-21T01:09:01.506Z,12.50
2023-11-21T01:11:28.424Z,12.50
2023-11-21T01:13:55.225Z,12.50
2023-11-21T01:16:22.191Z,12.60
2023-11-21T01:18:49.073Z,12.60
2023-11-21T01:21:16.026Z,12.50
2023-11-21T01:23:42.861Z,12.50
2023-11-21T01:26:09.936Z,12.50
2023-11-21T01:28:36.896Z,12.50
2023-11-21T01:31:04.114Z,12.60
2023-11-21T01:33:31.159Z,12.50
2023-11-21T01:35:58.231Z,12.60
2023-11-21T01:38:25.106Z,12.60
2023-11-21T01:40:52.115Z,12.50
2023-11-21T01:43:19.120Z,12.60
2023-11-21T01:45:48.687Z,12.60
2023-11-21T01:48:17.972Z,12.60
2023-11-21T01:50:46.249Z,12.60
2023-11-21T01:53:14.792Z,12.60
2023-11-21T01:55:46.696Z,12.60
2023-11-21T01:58:14.329Z,12.70
2023-11-21T02:00:41.573Z,12.70
2023-11-21T02:03:08.872Z,12.70
2023-11-21T02:05:35.893Z,12.70
2023-11-21T02:08:04.044Z,12.70
2023-11-21T02:10:32.746Z,12.60
2023-11-21T02:13:01.539Z,12.60
2023-11-21T02:15:30.397Z,12.60
2023-11-21T02:17:59.671Z,12.70
2023-11-21T02:20:27.793Z,12.70
2023-11-21T02:23:02.798Z,12.70
2023-11-21T02:25:32.191Z,12.70
2023-11-21T02:28:02.141Z,12.70
2023-11-21T02:30:29.783Z,12.70
2023-11-21T02:33:00.425Z,12.70
2023-11-21T02:35:28.137Z,12.70
2023-11-21T02:37:55.866Z,12.80
2023-11-21T02:40:23.345Z,12.70
2023-11-21T02:42:54.367Z,12.70
2023-11-21T02:45:22.584Z,12.70
2023-11-21T02:47:51.037Z,12.60
2023-11-21T02:50:21.747Z,12.60
2023-11-21T02:52:48.701Z,12.60
2023-11-21T02:55:15.942Z,12.60
2023-11-21T02:57:43.086Z,12.60
2023-11-21T03:00:14.878Z,12.50
2023-11-21T03:02:42.408Z,12.50
2023-11-21T03:05:12.429Z,12.50
2023-11-21T03:07:40.216Z,12.50
2023-11-21T03:10:10.883Z,12.40
2023-11-21T03:12:39.574Z,12.40
2023-11-21T03:15:07.814Z,12.30
2023-11-21T03:17:38.430Z,12.30
2023-11-21T03:20:07.088Z,12.30
2023-11-21T03:22:34.448Z,12.20
2023-11-21T03:25:02.114Z,12.10
2023-11-21T03:27:29.027Z,12.10
2023-11-21T03:29:56.209Z,12.00
2023-11-21T03:32:23.554Z,12.00
2023-11-21T03:35:00.730Z,12.00
2023-11-21T03:37:31.034Z,11.90
2023-11-21T03:39:58.609Z,11.90
2023-11-21T03:42:28.348Z,12.00
2023-11-21T03:44:55.729Z,11.90
2023-11-21T03:47:23.532Z,11.90
2023-11-21T03:49:53.794Z,12.00
2023-11-21T03:52:20.940Z,12.00
2023-11-21T03:54:47.833Z,12.00
2023-11-21T03:57:18.502Z,12.00
2023-11-21T04:00:21.818Z,11.90
2023-11-21T04:02:52.024Z,12.00
2023-11-21T04:05:22.545Z,12.00
2023-11-21T04:08:08.842Z,12.00
2023-11-21T04:10:54.782Z,12.00
2023-11-21T04:13:22.119Z,12.00
2023-11-21T04:15:49.240Z,12.00
2023-11-21T04:18:16.223Z,12.00
2023-11-21T04:20:45.397Z,12.00
2023-11-21T04:23:14.986Z,12.00
2023-11-21T04:25:42.081Z,12.00
2023-11-21T04:28:09.315Z,12.00
2023-11-21T04:30:36.714Z,12.00
2023-11-21T04:33:04.334Z,12.00
2023-11-21T04:35:31.240Z,12.00
2023-11-21T04:37:58.824Z,12.00
2023-11-21T04:40:28.555Z,12.00
2023-11-21T04:42:55.762Z,12.00
2023-11-21T04:45:22.771Z,12.00
2023-11-21T04:47:49.739Z,11.90
2023-11-21T04:50:16.782Z,12.00
2023-11-21T04:52:43.685Z,12.00
2023-11-21T04:55:11.652Z,12.00
2023-11-21T04:57:39.292Z,12.00
2023-11-21T05:00:07.347Z,12.00
2023-11-21T05:02:37.240Z,11.90
2023-11-21T05:05:07.557Z,11.90
2023-11-21T05:07:37.250Z,12.00
2023-11-21T05:10:12.039Z,12.00
2023-11-21T05:12:39.743Z,12.00
2023-11-21T05:15:14.177Z,12.00
2023-11-21T05:17:45.628Z,12.00
2023-11-21T05:20:15.168Z,12.00
2023-11-21T05:22:43.673Z,12.00
2023-11-21T05:25:12.841Z,12.00
2023-11-21T05:27:39.902Z,12.10
2023-11-21T05:30:07.675Z,12.00
2023-11-21T05:32:35.612Z,12.10
2023-11-21T05:35:02.643Z,12.00
2023-11-21T05:37:30.159Z,12.10
2023-11-21T05:40:06.045Z,12.10
2023-11-21T05:42:34.151Z,12.20
2023-11-21T05:45:10.816Z,12.20
2023-11-21T05:47:47.753Z,12.20
2023-11-21T05:50:17.276Z,12.20
2023-11-21T05:52:46.455Z,12.20
2023-11-21T05:55:14.695Z,12.20
2023-11-21T05:57:44.659Z,12.20
2023-11-21T06:00:16.994Z,12.20
2023-11-21T06:02:43.958Z,12.20
2023-11-21T06:05:11.716Z,12.20
2023-11-21T06:07:39.865Z,12.20
2023-11-21T06:10:10.538Z,12.20
2023-11-21T06:12:37.431Z,12.10
2023-11-21T06:15:07.048Z,12.10
2023-11-21T06:17:34.157Z,12.10
2023-11-21T06:20:02.347Z,12.10
2023-11-21T06:22:31.866Z,12.00
2023-11-21T06:24:59.362Z,11.90
2023-11-21T06:27:26.306Z,12.00
2023-11-21T06:29:53.180Z,11.90
2023-11-21T06:32:22.062Z,11.90
2023-11-21T06:34:51.494Z,11.90
2023-11-21T06:37:18.428Z,11.90
2023-11-21T06:39:45.482Z,11.90
2023-11-21T06:42:12.311Z,11.90
2023-11-21T06:44:39.287Z,12.00
2023-11-21T06:47:06.508Z,12.00
2023-11-21T06:49:33.665Z,12.00
2023-11-21T06:52:00.844Z,12.00
2023-11-21T06:54:28.177Z,12.00
2023-11-21T06:56:54.994Z,11.90
2023-11-21T06:59:21.969Z,11.90
2023-11-21T07:01:49.023Z,11.90
2023-11-21T07:04:16.422Z,12.00
2023-11-21T07:06:44.688Z,12.00
2023-11-21T07:09:13.369Z,11.90
2023-11-21T07:11:43.475Z,11.90
2023-11-21T07:14:11.254Z,11.90
2023-11-21T07:16:39.164Z,11.90
2023-11-21T07:19:07.450Z,11.90
2023-11-21T07:21:37.568Z,11.90
2023-11-21T07:24:05.405Z,11.90
2023-11-21T07:26:32.368Z,11.90
2023-11-21T07:28:59.301Z,11.90
2023-11-21T07:31:26.520Z,12.00
2023-11-21T07:33:54.050Z,12.00
2023-11-21T07:36:24.541Z,11.90
2023-11-21T07:38:51.938Z,12.00
2023-11-21T07:41:28.486Z,12.00
2023-11-21T07:43:58.758Z,12.00
2023-11-21T07:46:27.867Z,12.00
2023-11-21T07:48:54.891Z,12.00
2023-11-21T07:51:21.731Z,12.00
2023-11-21T07:53:48.579Z,12.00
2023-11-21T07:56:15.431Z,12.00
2023-11-21T07:58:42.753Z,12.00
2023-11-21T08:01:09.647Z,12.00
2023-11-21T08:03:36.632Z,12.00
2023-11-21T08:06:04.851Z,12.10
2023-11-21T08:08:31.822Z,12.10
2023-11-21T08:10:58.835Z,12.10
2023-11-21T08:13:28.252Z,12.00
2023-11-21T08:15:57.510Z,12.00
2023-11-21T08:18:24.460Z,12.00
2023-11-21T08:20:51.325Z,11.90
2023-11-21T08:23:18.410Z,11.90
2023-11-21T08:25:46.004Z,11.80
2023-11-21T08:28:15.601Z,11.80
2023-11-21T08:30:42.941Z,11.80
2023-11-21T08:33:10.197Z,11.70
2023-11-21T08:35:39.911Z,11.70
2023-11-21T08:38:07.606Z,11.60
2023-11-21T08:40:36.114Z,11.60
2023-11-21T08:43:05.849Z,11.60
2023-11-21T08:45:35.408Z,11.60
2023-11-21T08:48:03.417Z,11.60
2023-11-21T08:50:30.562Z,11.50
2023-11-21T08:52:57.608Z,11.50
2023-11-21T08:55:24.697Z,11.50
2023-11-21T08:57:52.287Z,11.40
2023-11-21T09:00:21.173Z,11.40
2023-11-21T09:02:48.642Z,11.40
2023-11-21T09:05:17.032Z,11.40
2023-11-21T09:07:44.438Z,11.30
2023-11-21T09:10:11.944Z,11.30
2023-11-21T09:12:39.807Z,11.30
2023-11-21T09:15:11.528Z,11.30
2023-11-21T09:17:38.781Z,11.20
2023-11-21T09:20:07.266Z,11.20
2023-11-21T09:22:34.873Z,11.30
2023-11-21T09:25:08.593Z,11.30
2023-11-21T09:27:41.109Z,11.30
2023-11-21T09:30:16.134Z,11.30
2023-11-21T09:32:47.660Z,11.30
2023-11-21T09:35:21.881Z,11.40
2023-11-21T09:37:57.832Z,11.40
2023-11-21T09:40:27.855Z,11.40
2023-11-21T09:42:59.045Z,11.40
2023-11-21T09:45:40.119Z,11.50
2023-11-21T09:51:38.776Z,11.60
2023-11-21T09:54:16.258Z,11.60
2023-11-21T09:56:51.302Z,11.50
2023-11-21T09:59:31.338Z,11.40
2023-11-21T10:02:07.310Z,11.40
2023-11-21T10:04:34.567Z,11.40
2023-11-21T10:07:02.218Z,11.30
2023-11-21T10:09:29.683Z,11.30
2023-11-21T10:11:58.120Z,11.20
2023-11-21T10:14:27.381Z,11.20
2023-11-21T10:16:59.780Z,11.10
2023-11-21T10:19:28.403Z,11.00
2023-11-21T10:21:55.948Z,11.00
2023-11-21T10:24:23.597Z,10.90
2023-11-21T10:26:54.189Z,10.90
2023-11-21T10:29:23.349Z,10.90
2023-11-21T10:31:52.355Z,10.80
2023-11-21T10:34:21.429Z,10.80
2023-11-21T10:36:48.397Z,10.80
2023-11-21T10:39:20.427Z,10.80
2023-11-21T10:41:52.286Z,10.70
2023-11-21T10:44:22.660Z,10.60
2023-11-21T10:46:52.307Z,10.60
2023-11-21T10:49:26.415Z,10.60
2023-11-21T10:51:54.905Z,10.50
2023-11-21T10:54:23.106Z,10.50
2023-11-21T10:57:02.082Z,10.50
2023-11-21T10:59:33.812Z,10.50
2023-11-21T11:02:06.200Z,10.40
2023-11-21T11:04:33.964Z,10.40
2023-11-21T11:07:06.309Z,10.50
2023-11-21T11:09:35.194Z,10.40
2023-11-21T11:12:05.746Z,10.50
2023-11-21T11:14:33.862Z,10.40
2023-11-21T11:17:03.230Z,10.40
2023-11-21T11:19:30.431Z,10.30
2023-11-21T11:22:26.647Z,10.40
2023-11-21T11:25:19.111Z,10.30
2023-11-21T11:28:04.735Z,10.30
2023-11-21T11:31:01.500Z,10.30
2023-11-21T11:33:59.080Z,10.20
2023-11-21T11:36:42.875Z,10.20
2023-11-21T11:39:30.311Z,10.10
2023-11-21T11:42:02.000Z,10.10
2023-11-21T11:44:47.975Z,10.10
2023-11-21T11:47:19.433Z,10.10
2023-11-21T11:50:08.489Z,10.00
2023-11-21T11:52:35.712Z,10.00
2023-11-21T11:55:05.211Z,10.00
2023-11-21T11:57:40.274Z,10.00
2023-11-21T12:00:19.914Z,9.90
2023-11-21T12:02:53.467Z,9.90
2023-11-21T12:05:24.771Z,9.90
2023-11-21T12:07:55.048Z,9.90
2023-11-21T12:10:26.104Z,9.90
2023-11-21T12:12:59.203Z,9.90
2023-11-21T12:15:27.119Z,9.90
2023-11-21T12:17:54.539Z,9.90
2023-11-21T12:20:23.692Z,9.80
2023-11-21T12:22:52.992Z,9.80
2023-11-21T12:25:25.660Z,9.80
2023-11-21T12:27:53.834Z,9.70
2023-11-21T12:30:29.282Z,9.70
2023-11-21T12:32:57.272Z,9.70
2023-11-21T12:35:28.599Z,9.70
2023-11-21T12:37:58.741Z,9.70
2023-11-21T12:40:26.872Z,9.60
2023-11-21T12:42:58.481Z,9.60
2023-11-21T12:45:27.908Z,9.60
2023-11-21T12:48:11.854Z,9.50
2023-11-21T12:50:40.100Z,9.60
2023-11-21T12:53:10.229Z,9.60
2023-11-21T12:55:41.338Z,9.50
2023-11-21T12:58:12.277Z,9.60
2023-11-21T13:00:43.655Z,9.60
2023-11-21T13:03:17.123Z,9.50
2023-11-21T13:05:49.096Z,9.50
2023-11-21T13:08:21.447Z,9.60
2023-11-21T13:10:52.048Z,9.50
2023-11-21T13:13:23.463Z,9.50
2023-11-21T13:15:54.233Z,9.50
2023-11-21T13:18:23.238Z,9.40
2023-11-21T13:20:51.703Z,9.40
2023-11-21T13:23:18.922Z,9.30
2023-11-21T13:25:55.052Z,9.30
2023-11-21T13:28:33.600Z,9.30
2023-11-21T13:31:11.953Z,9.30
2023-11-21T13:33:42.617Z,9.20
2023-11-21T13:36:11.807Z,9.20
2023-11-21T13:38:44.125Z,9.20
2023-11-21T13:41:14.023Z,9.20
2023-11-21T13:43:52.461Z,9.20
2023-11-21T13:46:23.732Z,9.20
2023-11-21T13:48:58.128Z,9.10
2023-11-21T13:51:38.878Z,9.10
2023-11-21T13:54:11.127Z,9.10
2023-11-21T13:56:41.354Z,9.10
2023-11-21T13:59:18.106Z,9.00
2023-11-21T14:01:58.629Z,9.00
2023-11-21T14:04:58.996Z,9.00
2023-11-21T14:07:37.256Z,8.90
2023-11-21T14:10:08.221Z,8.90
2023-11-21T14:12:40.123Z,8.90
2023-11-21T14:15:11.093Z,8.90
2023-11-21T14:17:42.688Z,8.90
2023-11-21T14:20:17.999Z,8.90
2023-11-21T14:22:45.985Z,8.80
2023-11-21T14:25:17.516Z,8.80
2023-11-21T14:27:44.716Z,8.80
2023-11-21T14:30:14.837Z,8.70
2023-11-21T14:32:43.993Z,8.70
2023-11-21T14:35:11.281Z,8.60
2023-11-21T14:37:38.687Z,8.60
2023-11-21T14:40:08.558Z,8.60
2023-11-21T14:42:38.602Z,8.60
2023-11-21T14:45:08.552Z,8.50
2023-11-21T14:47:35.833Z,8.50
2023-11-21T14:50:23.277Z,8.40
2023-11-21T14:53:00.951Z,8.40
2023-11-21T14:55:33.608Z,8.30
2023-11-21T14:58:05.824Z,8.30
2023-11-21T15:00:36.101Z,8.30
2023-11-21T15:03:04.757Z,8.20
2023-11-21T15:05:32.193Z,8.20
2023-11-21T15:08:12.745Z,8.10
2023-11-21T15:10:47.297Z,8.10
2023-11-21T15:13:16.029Z,8.10
2023-11-21T15:15:43.986Z,8.10
2023-11-21T15:18:13.791Z,8.00
2023-11-21T15:20:45.611Z,8.00
2023-11-21T15:23:15.800Z,8.00
2023-11-21T15:25:42.852Z,8.00
2023-11-21T15:28:10.038Z,8.00
2023-11-21T15:30:37.156Z,8.00
2023-11-21T15:33:05.142Z,8.10
2023-11-21T15:35:34.101Z,8.00
2023-11-21T15:38:01.460Z,8.00
2023-11-21T15:40:28.949Z,8.00
2023-11-21T15:42:56.064Z,8.00
2023-11-21T15:45:25.925Z,8.00
2023-11-21T15:47:54.866Z,8.00
2023-11-21T15:50:22.385Z,8.00
2023-11-21T15:52:57.205Z,8.00
2023-11-21T15:55:28.941Z,7.90
2023-11-21T15:57:55.861Z,7.90
2023-11-21T16:00:24.138Z,7.90
2023-11-21T16:02:51.863Z,7.90
2023-11-21T16:05:19.534Z,7.90
2023-11-21T16:07:46.567Z,7.90
2023-11-21T16:10:15.976Z,7.90
2023-11-21T16:12:44.111Z,7.90
2023-11-21T16:15:11.970Z,7.90
2023-11-21T16:17:40.015Z,8.00
2023-11-21T16:20:10.874Z,8.00
2023-11-21T16:22:39.210Z,8.00
2023-11-21T16:25:12.260Z,8.00
2023-11-21T16:27:40.617Z,7.90
2023-11-21T16:30:10.136Z,7.90
2023-11-21T16:32:38.039Z,7.90
2023-11-21T16:35:05.742Z,7.90
2023-11-21T16:37:33.243Z,7.90
2023-11-21T16:40:00.777Z,7.90
2023-11-21T16:42:32.526Z,7.80
2023-11-21T16:44:59.463Z,7.80
2023-11-21T16:47:28.157Z,7.90
2023-11-21T16:49:57.773Z,7.90
2023-11-21T16:52:25.130Z,7.80
2023-11-21T16:54:52.282Z,7.80
2023-11-21T16:57:19.256Z,7.80
2023-11-21T16:59:51.755Z,7.80
2023-11-21T17:02:20.695Z,7.80
2023-11-21T17:04:50.691Z,7.70
2023-11-21T17:07:24.251Z,7.70
2023-11-21T17:09:52.039Z,7.70
2023-11-21T17:12:20.117Z,7.70
2023-11-21T17:14:49.863Z,7.70
2023-11-21T17:17:17.299Z,7.70
2023-11-21T17:19:45.476Z,7.70
2023-11-21T17:22:13.007Z,7.70
2023-11-21T17:24:40.106Z,7.60
2023-11-21T17:27:11.688Z,7.60
2023-11-21T17:29:38.750Z,7.60
2023-11-21T17:32:06.377Z,7.50
2023-11-21T17:34:33.653Z,7.50
2023-11-21T17:37:01.666Z,7.50
2023-11-21T17:39:28.705Z,7.50
2023-11-21T17:41:55.782Z,7.50
2023-11-21T17:44:22.601Z,7.50
2023-11-21T17:46:49.839Z,7.50
2023-11-21T17:49:16.852Z,7.50
2023-11-21T17:51:43.836Z,7.50
2023-11-21T17:54:10.998Z,7.40
2023-11-21T17:56:37.890Z,7.40
2023-11-21T17:59:05.737Z,7.40
2023-11-21T18:01:40.738Z,7.30
2023-11-21T18:04:11.945Z,7.40
2023-11-21T18:06:40.529Z,7.50
2023-11-21T18:09:10.401Z,7.50
2023-11-21T18:11:37.733Z,7.70
2023-11-21T18:14:11.417Z,7.80
2023-11-21T18:16:40.092Z,7.80
2023-11-21T18:19:07.682Z,7.80
2023-11-21T18:21:35.102Z,7.80
2023-11-21T18:24:03.672Z,7.70
2023-11-21T18:26:30.614Z,7.70
2023-11-21T18:28:58.935Z,7.60
2023-11-21T18:31:26.060Z,7.60
2023-11-21T18:33:54.039Z,7.50
2023-11-21T18:36:21.244Z,7.50
2023-11-21T18:38:48.402Z,7.50
2023-11-21T18:41:23.899Z,7.50
2023-11-21T18:43:51.913Z,7.50
2023-11-21T18:46:19.895Z,7.40
2023-11-21T18:48:49.018Z,7.40
2023-11-21T18:51:16.466Z,7.40
2023-11-21T18:53:43.499Z,7.30
2023-11-21T18:56:25.682Z,7.30
2023-11-21T18:58:53.044Z,7.30
2023-11-21T19:01:27.779Z,7.30
2023-11-21T19:03:57.217Z,7.30
2023-11-21T19:06:25.336Z,7.30
2023-11-21T19:08:52.542Z,7.30
2023-11-21T19:11:20.952Z,7.30
2023-11-21T19:13:48.137Z,7.20
2023-11-21T19:16:17.959Z,7.20
2023-11-21T19:18:45.125Z,7.20
2023-11-21T19:21:16.625Z,7.10
2023-11-21T19:23:44.284Z,7.20
2023-11-21T19:26:11.495Z,7.10
2023-11-21T19:28:38.524Z,7.10
2023-11-21T19:31:05.585Z,7.10
2023-11-21T19:33:32.516Z,7.10
2023-11-21T19:35:59.497Z,7.10
2023-11-21T19:38:26.501Z,7.10
2023-11-21T19:40:53.770Z,7.10
2023-11-21T19:43:20.697Z,7.10
2023-11-21T19:45:48.588Z,7.10
2023-11-21T19:48:18.236Z,7.00
2023-11-21T19:50:45.562Z,6.90
2023-11-21T19:53:12.817Z,7.00
2023-11-21T19:55:39.938Z,6.90
2023-11-21T19:58:08.700Z,6.80
2023-11-21T20:00:36.318Z,6.80
2023-11-21T20:03:04.008Z,6.80
2023-11-21T20:05:31.932Z,6.80
2023-11-21T20:07:59.028Z,6.80
2023-11-21T20:10:26.133Z,6.80
2023-11-21T20:12:58.744Z,6.80
2023-11-21T20:15:27.386Z,6.80
2023-11-21T20:17:54.625Z,6.70
2023-11-21T20:20:22.118Z,6.70
2023-11-21T20:22:49.845Z,6.80
2023-11-21T20:25:19.815Z,6.70
2023-11-21T20:27:48.494Z,6.80
2023-11-21T20:30:16.171Z,6.70
2023-11-21T20:32:43.618Z,6.80
2023-11-21T20:35:11.933Z,6.80
2023-11-21T20:37:39.302Z,6.80
2023-11-21T20:40:08.891Z,6.80
2023-11-21T20:42:37.665Z,6.70
2023-11-21T20:45:05.680Z,6.70
2023-11-21T20:47:34.124Z,6.70
2023-11-21T20:50:01.626Z,6.70
2023-11-21T20:52:28.538Z,6.60
2023-11-21T20:54:56.334Z,6.60
2023-11-21T20:57:25.197Z,6.60
2023-11-21T20:59:52.969Z,6.60
2023-11-21T21:02:20.422Z,6.50
2023-11-21T21:04:47.579Z,6.50
2023-11-21T21:07:15.289Z,6.50
2023-11-21T21:09:43.768Z,6.40
2023-11-21T21:12:12.854Z,6.40
2023-11-21T21:14:39.992Z,6.40
2023-11-21T21:17:07.080Z,6.40
2023-11-21T21:19:34.854Z,6.30
2023-11-21T21:22:02.243Z,6.30
2023-11-21T21:24:29.959Z,6.30
2023-11-21T21:26:57.094Z,6.20
2023-11-21T21:29:28.005Z,6.20
2023-11-21T21:31:55.062Z,6.20
2023-11-21T21:34:22.295Z,6.10
2023-11-21T21:36:50.605Z,6.10
2023-11-21T21:39:18.995Z,6.00
2023-11-21T21:41:47.314Z,6.00
2023-11-21T21:44:17.425Z,6.00
2023-11-21T21:46:44.787Z,6.00
2023-11-21T21:49:14.605Z,6.00
2023-11-21T21:51:42.026Z,5.90
2023-11-21T21:54:10.771Z,5.90
2023-11-21T21:56:39.745Z,5.90
2023-11-21T21:59:08.932Z,5.90
2023-11-21T22:01:39.039Z,5.90
2023-11-21T22:04:09.444Z,5.90
2023-11-21T22:06:37.016Z,5.90
2023-11-21T22:09:04.793Z,5.90
2023-11-21T22:11:31.852Z,5.90
2023-11-21T22:13:58.884Z,5.80
2023-11-21T22:16:28.149Z,5.80
2023-11-21T22:18:56.722Z,5.80
2023-11-21T22:21:25.785Z,5.70
2023-11-21T22:23:53.279Z,5.70
2023-11-21T22:26:25.658Z,5.80
2023-11-21T22:28:52.800Z,5.70
2023-11-21T22:31:19.708Z,5.80
2023-11-21T22:33:47.159Z,5.70
2023-11-21T22:36:16.246Z,5.70
2023-11-21T22:38:45.184Z,5.70
2023-11-21T22:41:12.564Z,5.70
2023-11-21T22:43:41.128Z,5.70
2023-11-21T22:46:08.742Z,5.70
2023-11-21T22:48:36.339Z,5.70
2023-11-21T22:51:04.020Z,5.60
2023-11-21T22:53:31.268Z,5.60
2023-11-21T22:55:58.173Z,5.60
2023-11-21T22:58:25.346Z,5.60
2023-11-21T23:00:57.904Z,5.60
2023-11-21T23:03:25.225Z,5.50
2023-11-21T23:05:53.684Z,5.50
2023-11-21T23:08:20.669Z,5.50
2023-11-21T23:10:48.104Z,5.50
2023-11-21T23:13:15.513Z,5.50
2023-11-21T23:15:48.527Z,5.50
2023-11-21T23:18:18.856Z,5.50
2023-11-21T23:20:46.905Z,5.50
2023-11-21T23:23:14.593Z,5.50
2023-11-21T23:25:41.571Z,5.40
2023-11-21T23:28:09.104Z,5.40
2023-11-21T23:30:36.767Z,5.40
2023-11-21T23:33:04.155Z,5.40
2023-11-21T23:35:32.106Z,5.40
2023-11-21T23:37:59.164Z,5.50
2023-11-21T23:40:26.049Z,5.40
2023-11-21T23:42:52.996Z,5.40
2023-11-21T23:45:22.480Z,5.40
2023-11-21T23:47:49.435Z,5.40
2023-11-21T23:50:21.124Z,5.30
2023-11-21T23:52:53.019Z,5.30
2023-11-21T23:55:25.451Z,5.30
2023-11-21T23:57:55.458Z,5.30
